sensor_id;sensor_type;location;lat;lon;timestamp;P1;durP1;ratioP1;P2;durP2;ratioP2
75772;SDS011;64381;0.000;0.000;2023-01-29T00:02:02;8.87;;;4.47;;
75772;SDS011;64381;0.000;0.000;2023-01-29T00:04:27;7.67;;;4.60;;
75772;SDS011;64381;0.000;0.000;2023-01-29T00:06:53;8.33;;;4.80;;
75772;SDS011;64381;0.000;0.000;2023-01-29T00:09:18;8.23;;;4.90;;
75772;SDS011;64381;0.000;0.000;2023-01-29T00:11:43;7.87;;;4.17;;
75772;SDS011;64381;0.000;0.000;2023-01-29T00:14:08;9.10;;;4.43;;
75772;SDS011;64381;0.000;0.000;2023-01-29T00:16:34;9.23;;;4.60;;
75772;SDS011;64381;0.000;0.000;2023-01-29T00:18:59;8.57;;;4.77;;
75772;SDS011;64381;0.000;0.000;2023-01-29T00:21:25;8.20;;;4.55;;
75772;SDS011;64381;0.000;0.000;2023-01-29T00:23:50;7.27;;;4.20;;
75772;SDS011;64381;0.000;0.000;2023-01-29T00:26:18;10.47;;;4.73;;
75772;SDS011;64381;0.000;0.000;2023-01-29T00:28:43;7.90;;;4.33;;
75772;SDS011;64381;0.000;0.000;2023-01-29T00:31:09;7.97;;;4.53;;
75772;SDS011;64381;0.000;0.000;2023-01-29T00:33:37;9.68;;;4.70;;
75772;SDS011;64381;0.000;0.000;2023-01-29T00:36:04;6.88;;;4.20;;
75772;SDS011;64381;0.000;0.000;2023-01-29T00:38:30;9.70;;;4.40;;
75772;SDS011;64381;0.000;0.000;2023-01-29T00:40:56;7.97;;;4.30;;
75772;SDS011;64381;0.000;0.000;2023-01-29T00:43:21;8.00;;;4.33;;
75772;SDS011;64381;0.000;0.000;2023-01-29T00:45:48;7.33;;;4.03;;
75772;SDS011;64381;0.000;0.000;2023-01-29T00:48:13;9.37;;;4.43;;
75772;SDS011;64381;0.000;0.000;2023-01-29T00:50:38;7.40;;;4.73;;
75772;SDS011;64381;0.000;0.000;2023-01-29T00:53:03;8.30;;;4.63;;
75772;SDS011;64381;0.000;0.000;2023-01-29T00:55:28;7.73;;;4.50;;
75772;SDS011;64381;0.000;0.000;2023-01-29T00:57:54;8.70;;;4.73;;
75772;SDS011;64381;0.000;0.000;2023-01-29T01:00:19;8.47;;;4.10;;
75772;SDS011;64381;0.000;0.000;2023-01-29T01:02:44;7.78;;;3.95;;
75772;SDS011;64381;0.000;0.000;2023-01-29T01:05:11;7.60;;;4.13;;
75772;SDS011;64381;0.000;0.000;2023-01-29T01:07:38;7.38;;;4.43;;
75772;SDS011;64381;0.000;0.000;2023-01-29T01:10:04;6.93;;;3.90;;
75772;SDS011;64381;0.000;0.000;2023-01-29T01:12:30;6.60;;;3.83;;
75772;SDS011;64381;0.000;0.000;2023-01-29T01:14:56;7.95;;;4.05;;
75772;SDS011;64381;0.000;0.000;2023-01-29T01:17:21;7.90;;;4.30;;
75772;SDS011;64381;0.000;0.000;2023-01-29T01:19:46;6.97;;;3.87;;
75772;SDS011;64381;0.000;0.000;2023-01-29T01:22:12;7.13;;;4.20;;
75772;SDS011;64381;0.000;0.000;2023-01-29T01:24:37;8.73;;;4.23;;
75772;SDS011;64381;0.000;0.000;2023-01-29T01:27:03;7.43;;;4.25;;
75772;SDS011;64381;0.000;0.000;2023-01-29T01:29:28;7.23;;;4.17;;
75772;SDS011;64381;0.000;0.000;2023-01-29T01:31:54;6.83;;;3.90;;
75772;SDS011;64381;0.000;0.000;2023-01-29T01:34:19;6.97;;;4.10;;
75772;SDS011;64381;0.000;0.000;2023-01-29T01:36:44;7.13;;;4.17;;
75772;SDS011;64381;0.000;0.000;2023-01-29T01:39:09;6.53;;;3.90;;
75772;SDS011;64381;0.000;0.000;2023-01-29T01:41:35;7.87;;;4.03;;
75772;SDS011;64381;0.000;0.000;2023-01-29T01:44:01;7.47;;;3.90;;
75772;SDS011;64381;0.000;0.000;2023-01-29T01:46:29;7.60;;;4.22;;
75772;SDS011;64381;0.000;0.000;2023-01-29T01:49:06;7.13;;;4.13;;
75772;SDS011;64381;0.000;0.000;2023-01-29T01:51:36;8.32;;;4.43;;
75772;SDS011;64381;0.000;0.000;2023-01-29T01:54:07;10.07;;;4.30;;
75772;SDS011;64381;0.000;0.000;2023-01-29T01:56:36;7.10;;;4.00;;
75772;SDS011;64381;0.000;0.000;2023-01-29T01:59:08;7.55;;;4.10;;
75772;SDS011;64381;0.000;0.000;2023-01-29T02:01:35;6.80;;;4.10;;
75772;SDS011;64381;0.000;0.000;2023-01-29T02:04:04;8.00;;;4.20;;
75772;SDS011;64381;0.000;0.000;2023-01-29T02:06:31;6.78;;;4.03;;
75772;SDS011;64381;0.000;0.000;2023-01-29T02:08:59;6.90;;;4.18;;
75772;SDS011;64381;0.000;0.000;2023-01-29T02:11:27;6.72;;;4.03;;
75772;SDS011;64381;0.000;0.000;2023-01-29T02:13:54;6.53;;;3.93;;
75772;SDS011;64381;0.000;0.000;2023-01-29T02:16:20;6.80;;;3.90;;
75772;SDS011;64381;0.000;0.000;2023-01-29T02:18:46;7.13;;;3.83;;
75772;SDS011;64381;0.000;0.000;2023-01-29T02:21:29;6.90;;;4.00;;
75772;SDS011;64381;0.000;0.000;2023-01-29T02:27:15;5.85;;;3.70;;
75772;SDS011;64381;0.000;0.000;2023-01-29T02:30:18;6.78;;;3.88;;
75772;SDS011;64381;0.000;0.000;2023-01-29T02:33:00;6.90;;;3.95;;
75772;SDS011;64381;0.000;0.000;2023-01-29T02:35:34;7.33;;;4.10;;
75772;SDS011;64381;0.000;0.000;2023-01-29T02:41:24;6.30;;;3.78;;
75772;SDS011;64381;0.000;0.000;2023-01-29T02:43:54;6.32;;;3.90;;
75772;SDS011;64381;0.000;0.000;2023-01-29T02:46:34;7.43;;;3.72;;
75772;SDS011;64381;0.000;0.000;2023-01-29T02:49:24;6.57;;;3.67;;
75772;SDS011;64381;0.000;0.000;2023-01-29T02:54:58;6.78;;;3.80;;
75772;SDS011;64381;0.000;0.000;2023-01-29T02:57:38;5.97;;;3.67;;
75772;SDS011;64381;0.000;0.000;2023-01-29T03:02:42;5.87;;;3.60;;
75772;SDS011;64381;0.000;0.000;2023-01-29T03:05:13;5.90;;;3.60;;
75772;SDS011;64381;0.000;0.000;2023-01-29T03:07:43;5.85;;;3.45;;
75772;SDS011;64381;0.000;0.000;2023-01-29T03:10:16;5.63;;;3.50;;
75772;SDS011;64381;0.000;0.000;2023-01-29T03:12:42;6.10;;;3.60;;
75772;SDS011;64381;0.000;0.000;2023-01-29T03:15:10;6.00;;;3.70;;
75772;SDS011;64381;0.000;0.000;2023-01-29T03:18:02;6.38;;;3.70;;
75772;SDS011;64381;0.000;0.000;2023-01-29T03:20:29;7.22;;;3.78;;
75772;SDS011;64381;0.000;0.000;2023-01-29T03:23:09;6.35;;;3.72;;
75772;SDS011;64381;0.000;0.000;2023-01-29T03:25:39;5.55;;;3.47;;
75772;SDS011;64381;0.000;0.000;2023-01-29T03:28:07;5.97;;;3.30;;
75772;SDS011;64381;0.000;0.000;2023-01-29T03:30:37;6.68;;;3.80;;
75772;SDS011;64381;0.000;0.000;2023-01-29T03:33:16;7.15;;;3.63;;
75772;SDS011;64381;0.000;0.000;2023-01-29T03:35:52;6.20;;;3.65;;
75772;SDS011;64381;0.000;0.000;2023-01-29T03:38:23;6.07;;;3.67;;
75772;SDS011;64381;0.000;0.000;2023-01-29T03:40:50;6.47;;;3.87;;
75772;SDS011;64381;0.000;0.000;2023-01-29T03:43:23;6.87;;;3.77;;
75772;SDS011;64381;0.000;0.000;2023-01-29T03:48:36;6.75;;;3.97;;
75772;SDS011;64381;0.000;0.000;2023-01-29T03:51:24;6.03;;;3.53;;
75772;SDS011;64381;0.000;0.000;2023-01-29T03:53:59;5.72;;;3.60;;
75772;SDS011;64381;0.000;0.000;2023-01-29T03:59:22;6.07;;;3.60;;
75772;SDS011;64381;0.000;0.000;2023-01-29T04:01:58;5.88;;;3.60;;
75772;SDS011;64381;0.000;0.000;2023-01-29T04:04:27;5.90;;;3.50;;
75772;SDS011;64381;0.000;0.000;2023-01-29T04:06:56;8.23;;;3.78;;
75772;SDS011;64381;0.000;0.000;2023-01-29T04:09:30;6.63;;;3.97;;
75772;SDS011;64381;0.000;0.000;2023-01-29T04:12:01;5.85;;;3.38;;
75772;SDS011;64381;0.000;0.000;2023-01-29T04:14:29;6.88;;;3.60;;
75772;SDS011;64381;0.000;0.000;2023-01-29T04:16:56;5.88;;;3.63;;
75772;SDS011;64381;0.000;0.000;2023-01-29T04:19:24;6.00;;;3.60;;
75772;SDS011;64381;0.000;0.000;2023-01-29T04:21:50;6.70;;;3.77;;
75772;SDS011;64381;0.000;0.000;2023-01-29T04:24:23;6.38;;;3.33;;
75772;SDS011;64381;0.000;0.000;2023-01-29T04:26:51;6.07;;;3.57;;
75772;SDS011;64381;0.000;0.000;2023-01-29T04:29:47;6.67;;;3.50;;
75772;SDS011;64381;0.000;0.000;2023-01-29T04:35:16;6.72;;;3.78;;
75772;SDS011;64381;0.000;0.000;2023-01-29T04:40:31;6.30;;;3.63;;
75772;SDS011;64381;0.000;0.000;2023-01-29T04:46:15;6.30;;;3.60;;
75772;SDS011;64381;0.000;0.000;2023-01-29T04:49:01;6.22;;;3.70;;
75772;SDS011;64381;0.000;0.000;2023-01-29T04:51:51;5.40;;;3.28;;
75772;SDS011;64381;0.000;0.000;2023-01-29T04:56:56;5.93;;;3.43;;
75772;SDS011;64381;0.000;0.000;2023-01-29T04:59:31;6.93;;;3.90;;
75772;SDS011;64381;0.000;0.000;2023-01-29T05:02:00;6.25;;;3.88;;
75772;SDS011;64381;0.000;0.000;2023-01-29T05:04:26;7.70;;;3.70;;
75772;SDS011;64381;0.000;0.000;2023-01-29T05:06:53;6.10;;;4.10;;
75772;SDS011;64381;0.000;0.000;2023-01-29T05:09:19;7.15;;;3.72;;
75772;SDS011;64381;0.000;0.000;2023-01-29T05:11:46;6.27;;;3.80;;
75772;SDS011;64381;0.000;0.000;2023-01-29T05:14:12;5.72;;;3.60;;
75772;SDS011;64381;0.000;0.000;2023-01-29T05:16:41;6.28;;;3.50;;
75772;SDS011;64381;0.000;0.000;2023-01-29T05:19:09;6.45;;;3.80;;
75772;SDS011;64381;0.000;0.000;2023-01-29T05:21:37;6.18;;;3.53;;
75772;SDS011;64381;0.000;0.000;2023-01-29T05:24:11;5.70;;;3.67;;
75772;SDS011;64381;0.000;0.000;2023-01-29T05:26:37;5.75;;;3.50;;
75772;SDS011;64381;0.000;0.000;2023-01-29T05:29:02;5.87;;;3.53;;
75772;SDS011;64381;0.000;0.000;2023-01-29T05:31:27;6.77;;;3.70;;
75772;SDS011;64381;0.000;0.000;2023-01-29T05:33:52;5.93;;;3.77;;
75772;SDS011;64381;0.000;0.000;2023-01-29T05:36:18;6.53;;;3.70;;
75772;SDS011;64381;0.000;0.000;2023-01-29T05:38:43;6.60;;;3.53;;
75772;SDS011;64381;0.000;0.000;2023-01-29T05:41:08;5.07;;;3.10;;
75772;SDS011;64381;0.000;0.000;2023-01-29T05:43:33;5.77;;;3.40;;
75772;SDS011;64381;0.000;0.000;2023-01-29T05:45:59;6.10;;;3.50;;
75772;SDS011;64381;0.000;0.000;2023-01-29T05:48:28;6.07;;;3.13;;
75772;SDS011;64381;0.000;0.000;2023-01-29T05:50:58;7.03;;;3.33;;
75772;SDS011;64381;0.000;0.000;2023-01-29T05:53:24;5.75;;;3.53;;
75772;SDS011;64381;0.000;0.000;2023-01-29T05:55:49;8.40;;;3.50;;
75772;SDS011;64381;0.000;0.000;2023-01-29T05:58:15;6.40;;;3.33;;
75772;SDS011;64381;0.000;0.000;2023-01-29T06:00:40;7.00;;;3.80;;
75772;SDS011;64381;0.000;0.000;2023-01-29T06:03:06;6.43;;;3.60;;
75772;SDS011;64381;0.000;0.000;2023-01-29T06:05:31;6.85;;;3.30;;
75772;SDS011;64381;0.000;0.000;2023-01-29T06:07:56;7.47;;;3.33;;
75772;SDS011;64381;0.000;0.000;2023-01-29T06:10:22;6.80;;;3.90;;
75772;SDS011;64381;0.000;0.000;2023-01-29T06:12:47;10.73;;;4.50;;
75772;SDS011;64381;0.000;0.000;2023-01-29T06:15:12;10.17;;;4.40;;
75772;SDS011;64381;0.000;0.000;2023-01-29T06:17:38;10.53;;;4.60;;
75772;SDS011;64381;0.000;0.000;2023-01-29T06:20:03;10.57;;;4.83;;
75772;SDS011;64381;0.000;0.000;2023-01-29T06:22:29;8.13;;;3.97;;
75772;SDS011;64381;0.000;0.000;2023-01-29T06:24:54;11.07;;;4.40;;
75772;SDS011;64381;0.000;0.000;2023-01-29T06:27:19;9.63;;;4.73;;
75772;SDS011;64381;0.000;0.000;2023-01-29T06:29:45;9.20;;;4.40;;
75772;SDS011;64381;0.000;0.000;2023-01-29T06:32:10;14.97;;;4.93;;
75772;SDS011;64381;0.000;0.000;2023-01-29T06:34:35;13.80;;;5.10;;
75772;SDS011;64381;0.000;0.000;2023-01-29T06:37:01;10.67;;;4.33;;
75772;SDS011;64381;0.000;0.000;2023-01-29T06:39:26;6.43;;;3.65;;
75772;SDS011;64381;0.000;0.000;2023-01-29T06:41:51;7.23;;;4.00;;
75772;SDS011;64381;0.000;0.000;2023-01-29T06:44:17;10.77;;;4.43;;
75772;SDS011;64381;0.000;0.000;2023-01-29T06:46:42;9.17;;;3.90;;
75772;SDS011;64381;0.000;0.000;2023-01-29T06:49:07;7.70;;;3.63;;
75772;SDS011;64381;0.000;0.000;2023-01-29T06:51:32;8.40;;;4.00;;
75772;SDS011;64381;0.000;0.000;2023-01-29T06:53:58;8.73;;;3.90;;
75772;SDS011;64381;0.000;0.000;2023-01-29T06:56:23;8.33;;;4.00;;
75772;SDS011;64381;0.000;0.000;2023-01-29T06:58:48;7.43;;;3.60;;
75772;SDS011;64381;0.000;0.000;2023-01-29T07:01:13;7.33;;;3.40;;
75772;SDS011;64381;0.000;0.000;2023-01-29T07:03:39;7.63;;;3.60;;
75772;SDS011;64381;0.000;0.000;2023-01-29T07:06:04;8.47;;;3.60;;
75772;SDS011;64381;0.000;0.000;2023-01-29T07:08:29;6.73;;;3.73;;
75772;SDS011;64381;0.000;0.000;2023-01-29T07:10:59;7.80;;;3.90;;
75772;SDS011;64381;0.000;0.000;2023-01-29T07:13:24;9.05;;;3.55;;
75772;SDS011;64381;0.000;0.000;2023-01-29T07:15:50;7.17;;;3.63;;
75772;SDS011;64381;0.000;0.000;2023-01-29T07:18:15;7.20;;;3.70;;
75772;SDS011;64381;0.000;0.000;2023-01-29T07:20:41;6.97;;;3.77;;
75772;SDS011;64381;0.000;0.000;2023-01-29T07:23:10;7.77;;;3.60;;
75772;SDS011;64381;0.000;0.000;2023-01-29T07:25:37;6.00;;;3.63;;
75772;SDS011;64381;0.000;0.000;2023-01-29T07:28:03;6.60;;;3.30;;
75772;SDS011;64381;0.000;0.000;2023-01-29T07:30:29;5.80;;;3.40;;
75772;SDS011;64381;0.000;0.000;2023-01-29T07:32:54;5.87;;;3.00;;
75772;SDS011;64381;0.000;0.000;2023-01-29T07:35:20;6.00;;;3.53;;
75772;SDS011;64381;0.000;0.000;2023-01-29T07:37:48;6.13;;;3.23;;
75772;SDS011;64381;0.000;0.000;2023-01-29T07:40:14;6.15;;;3.20;;
75772;SDS011;64381;0.000;0.000;2023-01-29T07:42:39;6.17;;;3.00;;
75772;SDS011;64381;0.000;0.000;2023-01-29T07:45:05;7.27;;;3.63;;
75772;SDS011;64381;0.000;0.000;2023-01-29T07:47:31;5.20;;;3.22;;
75772;SDS011;64381;0.000;0.000;2023-01-29T07:49:56;6.60;;;3.57;;
75772;SDS011;64381;0.000;0.000;2023-01-29T07:52:21;7.10;;;3.50;;
75772;SDS011;64381;0.000;0.000;2023-01-29T07:54:46;6.90;;;3.30;;
75772;SDS011;64381;0.000;0.000;2023-01-29T07:57:11;8.47;;;3.70;;
75772;SDS011;64381;0.000;0.000;2023-01-29T07:59:37;6.20;;;3.30;;
75772;SDS011;64381;0.000;0.000;2023-01-29T08:02:02;5.90;;;3.30;;
75772;SDS011;64381;0.000;0.000;2023-01-29T08:04:27;5.63;;;3.13;;
75772;SDS011;64381;0.000;0.000;2023-01-29T08:06:52;5.67;;;3.33;;
75772;SDS011;64381;0.000;0.000;2023-01-29T08:09:17;5.23;;;2.93;;
75772;SDS011;64381;0.000;0.000;2023-01-29T08:11:43;6.83;;;3.37;;
75772;SDS011;64381;0.000;0.000;2023-01-29T08:14:08;7.33;;;3.10;;
75772;SDS011;64381;0.000;0.000;2023-01-29T08:16:34;5.70;;;3.23;;
75772;SDS011;64381;0.000;0.000;2023-01-29T08:19:00;5.85;;;2.97;;
75772;SDS011;64381;0.000;0.000;2023-01-29T08:21:26;6.53;;;3.23;;
75772;SDS011;64381;0.000;0.000;2023-01-29T08:23:51;5.33;;;3.00;;
75772;SDS011;64381;0.000;0.000;2023-01-29T08:26:16;4.73;;;2.97;;
75772;SDS011;64381;0.000;0.000;2023-01-29T08:28:42;6.63;;;3.00;;
75772;SDS011;64381;0.000;0.000;2023-01-29T08:31:16;5.63;;;3.00;;
75772;SDS011;64381;0.000;0.000;2023-01-29T08:33:43;6.38;;;3.50;;
75772;SDS011;64381;0.000;0.000;2023-01-29T08:36:08;5.77;;;3.00;;
75772;SDS011;64381;0.000;0.000;2023-01-29T08:38:34;6.15;;;2.72;;
75772;SDS011;64381;0.000;0.000;2023-01-29T08:40:59;5.23;;;2.93;;
75772;SDS011;64381;0.000;0.000;2023-01-29T08:43:25;5.70;;;2.93;;
75772;SDS011;64381;0.000;0.000;2023-01-29T08:45:50;6.20;;;3.23;;
75772;SDS011;64381;0.000;0.000;2023-01-29T08:48:15;5.77;;;3.00;;
75772;SDS011;64381;0.000;0.000;2023-01-29T08:50:40;5.13;;;2.60;;
75772;SDS011;64381;0.000;0.000;2023-01-29T08:53:06;5.60;;;3.20;;
75772;SDS011;64381;0.000;0.000;2023-01-29T08:55:34;6.55;;;3.20;;
75772;SDS011;64381;0.000;0.000;2023-01-29T08:58:01;5.57;;;3.13;;
75772;SDS011;64381;0.000;0.000;2023-01-29T09:00:27;5.20;;;3.30;;
75772;SDS011;64381;0.000;0.000;2023-01-29T09:02:53;6.17;;;3.10;;
75772;SDS011;64381;0.000;0.000;2023-01-29T09:05:18;6.33;;;3.00;;
75772;SDS011;64381;0.000;0.000;2023-01-29T09:07:43;5.73;;;2.77;;
75772;SDS011;64381;0.000;0.000;2023-01-29T09:10:09;5.33;;;2.97;;
75772;SDS011;64381;0.000;0.000;2023-01-29T09:12:34;5.53;;;2.83;;
75772;SDS011;64381;0.000;0.000;2023-01-29T09:15:00;5.40;;;3.20;;
75772;SDS011;64381;0.000;0.000;2023-01-29T09:17:25;4.87;;;2.90;;
75772;SDS011;64381;0.000;0.000;2023-01-29T09:19:50;5.47;;;3.27;;
75772;SDS011;64381;0.000;0.000;2023-01-29T09:22:15;5.03;;;2.87;;
75772;SDS011;64381;0.000;0.000;2023-01-29T09:24:40;5.17;;;2.70;;
75772;SDS011;64381;0.000;0.000;2023-01-29T09:27:06;5.03;;;2.97;;
75772;SDS011;64381;0.000;0.000;2023-01-29T09:29:31;5.67;;;3.00;;
75772;SDS011;64381;0.000;0.000;2023-01-29T09:31:56;6.33;;;3.07;;
75772;SDS011;64381;0.000;0.000;2023-01-29T09:34:21;6.00;;;3.00;;
75772;SDS011;64381;0.000;0.000;2023-01-29T09:36:46;5.50;;;3.30;;
75772;SDS011;64381;0.000;0.000;2023-01-29T09:39:12;4.90;;;2.77;;
75772;SDS011;64381;0.000;0.000;2023-01-29T09:41:42;5.50;;;2.90;;
75772;SDS011;64381;0.000;0.000;2023-01-29T09:44:16;5.63;;;3.08;;
75772;SDS011;64381;0.000;0.000;2023-01-29T09:47:02;5.50;;;3.13;;
75772;SDS011;64381;0.000;0.000;2023-01-29T09:49:31;5.53;;;3.10;;
75772;SDS011;64381;0.000;0.000;2023-01-29T09:52:01;5.20;;;3.00;;
75772;SDS011;64381;0.000;0.000;2023-01-29T09:54:46;5.07;;;3.00;;
75772;SDS011;64381;0.000;0.000;2023-01-29T09:57:21;5.20;;;2.78;;
75772;SDS011;64381;0.000;0.000;2023-01-29T09:59:53;5.90;;;3.20;;
75772;SDS011;64381;0.000;0.000;2023-01-29T10:13:14;5.47;;;2.90;;
75772;SDS011;64381;0.000;0.000;2023-01-29T10:18:36;6.22;;;3.25;;
75772;SDS011;64381;0.000;0.000;2023-01-29T10:26:50;5.93;;;3.40;;
75772;SDS011;64381;0.000;0.000;2023-01-29T10:29:17;6.47;;;3.13;;
75772;SDS011;64381;0.000;0.000;2023-01-29T10:31:44;5.50;;;3.10;;
75772;SDS011;64381;0.000;0.000;2023-01-29T10:34:13;5.50;;;3.10;;
75772;SDS011;64381;0.000;0.000;2023-01-29T10:36:48;5.28;;;2.90;;
75772;SDS011;64381;0.000;0.000;2023-01-29T10:39:15;5.17;;;2.90;;
75772;SDS011;64381;0.000;0.000;2023-01-29T10:42:01;6.40;;;3.60;;
75772;SDS011;64381;0.000;0.000;2023-01-29T10:44:48;5.55;;;3.20;;
75772;SDS011;64381;0.000;0.000;2023-01-29T10:52:49;5.85;;;3.08;;
75772;SDS011;64381;0.000;0.000;2023-01-29T10:55:50;5.45;;;3.10;;
75772;SDS011;64381;0.000;0.000;2023-01-29T11:00:58;5.00;;;3.10;;
75772;SDS011;64381;0.000;0.000;2023-01-29T11:03:27;4.70;;;2.83;;
75772;SDS011;64381;0.000;0.000;2023-01-29T11:05:56;4.97;;;3.25;;
75772;SDS011;64381;0.000;0.000;2023-01-29T11:08:30;5.57;;;3.20;;
75772;SDS011;64381;0.000;0.000;2023-01-29T11:13:28;6.07;;;2.83;;
75772;SDS011;64381;0.000;0.000;2023-01-29T11:15:58;5.47;;;2.92;;
75772;SDS011;64381;0.000;0.000;2023-01-29T11:18:23;5.27;;;2.80;;
75772;SDS011;64381;0.000;0.000;2023-01-29T11:20:58;6.90;;;2.77;;
75772;SDS011;64381;0.000;0.000;2023-01-29T11:23:26;5.90;;;3.00;;
75772;SDS011;64381;0.000;0.000;2023-01-29T11:25:56;6.30;;;3.20;;
75772;SDS011;64381;0.000;0.000;2023-01-29T11:28:36;4.55;;;2.80;;
75772;SDS011;64381;0.000;0.000;2023-01-29T11:31:01;5.27;;;2.83;;
75772;SDS011;64381;0.000;0.000;2023-01-29T11:33:27;5.65;;;3.10;;
75772;SDS011;64381;0.000;0.000;2023-01-29T11:35:52;5.93;;;3.00;;
75772;SDS011;64381;0.000;0.000;2023-01-29T11:38:21;5.00;;;3.00;;
75772;SDS011;64381;0.000;0.000;2023-01-29T11:40:48;5.53;;;2.85;;
75772;SDS011;64381;0.000;0.000;2023-01-29T11:45:44;5.30;;;3.10;;
75772;SDS011;64381;0.000;0.000;2023-01-29T11:48:13;5.70;;;3.35;;
75772;SDS011;64381;0.000;0.000;2023-01-29T11:50:41;5.60;;;2.90;;
75772;SDS011;64381;0.000;0.000;2023-01-29T11:53:18;4.72;;;2.63;;
75772;SDS011;64381;0.000;0.000;2023-01-29T11:55:56;5.55;;;2.85;;
75772;SDS011;64381;0.000;0.000;2023-01-29T11:58:26;5.17;;;3.00;;
75772;SDS011;64381;0.000;0.000;2023-01-29T12:00:54;5.82;;;2.70;;
75772;SDS011;64381;0.000;0.000;2023-01-29T12:03:27;5.85;;;2.60;;
75772;SDS011;64381;0.000;0.000;2023-01-29T12:06:16;5.17;;;2.70;;
75772;SDS011;64381;0.000;0.000;2023-01-29T12:08:51;5.60;;;3.10;;
75772;SDS011;64381;0.000;0.000;2023-01-29T12:13:55;6.25;;;3.00;;
75772;SDS011;64381;0.000;0.000;2023-01-29T12:24:12;6.07;;;2.83;;
75772;SDS011;64381;0.000;0.000;2023-01-29T12:26:57;4.40;;;2.50;;
75772;SDS011;64381;0.000;0.000;2023-01-29T12:32:40;5.70;;;2.70;;
75772;SDS011;64381;0.000;0.000;2023-01-29T12:40:41;4.43;;;2.83;;
75772;SDS011;64381;0.000;0.000;2023-01-29T12:43:45;5.20;;;3.08;;
75772;SDS011;64381;0.000;0.000;2023-01-29T12:46:26;6.13;;;3.28;;
75772;SDS011;64381;0.000;0.000;2023-01-29T12:48:55;6.37;;;3.10;;
75772;SDS011;64381;0.000;0.000;2023-01-29T12:51:35;6.03;;;2.90;;
75772;SDS011;64381;0.000;0.000;2023-01-29T12:54:06;5.50;;;3.00;;
75772;SDS011;64381;0.000;0.000;2023-01-29T12:56:37;6.63;;;2.95;;
75772;SDS011;64381;0.000;0.000;2023-01-29T12:59:09;5.22;;;3.00;;
75772;SDS011;64381;0.000;0.000;2023-01-29T13:05:02;4.90;;;2.60;;
75772;SDS011;64381;0.000;0.000;2023-01-29T13:07:44;5.18;;;3.03;;
75772;SDS011;64381;0.000;0.000;2023-01-29T13:10:13;4.75;;;2.90;;
75772;SDS011;64381;0.000;0.000;2023-01-29T13:12:47;4.50;;;2.75;;
75772;SDS011;64381;0.000;0.000;2023-01-29T13:15:29;4.67;;;2.80;;
75772;SDS011;64381;0.000;0.000;2023-01-29T13:18:01;4.78;;;2.50;;
75772;SDS011;64381;0.000;0.000;2023-01-29T13:20:44;5.32;;;2.90;;
75772;SDS011;64381;0.000;0.000;2023-01-29T13:23:20;4.60;;;2.60;;
75772;SDS011;64381;0.000;0.000;2023-01-29T13:25:48;4.57;;;2.60;;
75772;SDS011;64381;0.000;0.000;2023-01-29T13:28:16;6.30;;;2.90;;
75772;SDS011;64381;0.000;0.000;2023-01-29T13:30:43;5.07;;;2.80;;
75772;SDS011;64381;0.000;0.000;2023-01-29T13:33:14;4.95;;;2.88;;
75772;SDS011;64381;0.000;0.000;2023-01-29T13:35:47;4.83;;;2.67;;
75772;SDS011;64381;0.000;0.000;2023-01-29T13:41:07;4.55;;;2.70;;
75772;SDS011;64381;0.000;0.000;2023-01-29T13:43:34;5.00;;;2.67;;
75772;SDS011;64381;0.000;0.000;2023-01-29T13:46:06;4.93;;;2.90;;
75772;SDS011;64381;0.000;0.000;2023-01-29T13:48:40;4.40;;;2.50;;
75772;SDS011;64381;0.000;0.000;2023-01-29T13:51:09;5.35;;;2.80;;
75772;SDS011;64381;0.000;0.000;2023-01-29T13:53:37;4.45;;;2.65;;
75772;SDS011;64381;0.000;0.000;2023-01-29T13:58:53;4.90;;;2.70;;
75772;SDS011;64381;0.000;0.000;2023-01-29T14:06:45;5.40;;;2.80;;
75772;SDS011;64381;0.000;0.000;2023-01-29T14:11:56;4.78;;;2.80;;
75772;SDS011;64381;0.000;0.000;2023-01-29T14:17:16;4.45;;;2.40;;
75772;SDS011;64381;0.000;0.000;2023-01-29T14:19:49;4.40;;;2.58;;
75772;SDS011;64381;0.000;0.000;2023-01-29T14:22:22;4.93;;;2.55;;
75772;SDS011;64381;0.000;0.000;2023-01-29T14:24:59;4.97;;;2.50;;
75772;SDS011;64381;0.000;0.000;2023-01-29T14:27:27;4.40;;;2.50;;
75772;SDS011;64381;0.000;0.000;2023-01-29T14:29:59;5.45;;;2.85;;
75772;SDS011;64381;0.000;0.000;2023-01-29T14:32:27;4.65;;;2.67;;
75772;SDS011;64381;0.000;0.000;2023-01-29T14:34:55;4.10;;;2.42;;
75772;SDS011;64381;0.000;0.000;2023-01-29T14:37:31;5.78;;;2.83;;
75772;SDS011;64381;0.000;0.000;2023-01-29T14:40:11;5.10;;;2.70;;
75772;SDS011;64381;0.000;0.000;2023-01-29T14:45:26;4.28;;;2.50;;
75772;SDS011;64381;0.000;0.000;2023-01-29T14:47:57;5.03;;;2.70;;
75772;SDS011;64381;0.000;0.000;2023-01-29T14:53:05;4.57;;;2.43;;
75772;SDS011;64381;0.000;0.000;2023-01-29T14:55:39;4.27;;;2.50;;
75772;SDS011;64381;0.000;0.000;2023-01-29T14:58:14;4.38;;;2.63;;
75772;SDS011;64381;0.000;0.000;2023-01-29T15:00:44;4.70;;;2.53;;
75772;SDS011;64381;0.000;0.000;2023-01-29T15:06:05;4.68;;;2.70;;
75772;SDS011;64381;0.000;0.000;2023-01-29T15:08:36;4.77;;;2.67;;
75772;SDS011;64381;0.000;0.000;2023-01-29T15:11:07;4.55;;;2.50;;
75772;SDS011;64381;0.000;0.000;2023-01-29T15:13:49;5.28;;;2.55;;
75772;SDS011;64381;0.000;0.000;2023-01-29T15:16:18;4.90;;;2.75;;
75772;SDS011;64381;0.000;0.000;2023-01-29T15:18:48;4.55;;;2.45;;
75772;SDS011;64381;0.000;0.000;2023-01-29T15:21:18;4.10;;;2.40;;
75772;SDS011;64381;0.000;0.000;2023-01-29T15:23:44;4.70;;;2.67;;
75772;SDS011;64381;0.000;0.000;2023-01-29T15:26:11;4.63;;;2.78;;
75772;SDS011;64381;0.000;0.000;2023-01-29T15:28:42;4.80;;;2.70;;
75772;SDS011;64381;0.000;0.000;2023-01-29T15:31:11;4.23;;;2.37;;
75772;SDS011;64381;0.000;0.000;2023-01-29T15:33:40;3.90;;;2.50;;
75772;SDS011;64381;0.000;0.000;2023-01-29T15:36:10;4.25;;;2.53;;
75772;SDS011;64381;0.000;0.000;2023-01-29T15:38:43;4.97;;;2.53;;
75772;SDS011;64381;0.000;0.000;2023-01-29T15:41:16;5.47;;;2.70;;
75772;SDS011;64381;0.000;0.000;2023-01-29T15:43:44;4.50;;;2.33;;
75772;SDS011;64381;0.000;0.000;2023-01-29T15:46:24;4.20;;;2.30;;
75772;SDS011;64381;0.000;0.000;2023-01-29T15:48:52;4.25;;;2.42;;
75772;SDS011;64381;0.000;0.000;2023-01-29T15:51:20;4.68;;;2.40;;
75772;SDS011;64381;0.000;0.000;2023-01-29T15:56:14;4.70;;;2.50;;
75772;SDS011;64381;0.000;0.000;2023-01-29T15:58:46;4.73;;;2.53;;
75772;SDS011;64381;0.000;0.000;2023-01-29T16:01:12;4.57;;;2.33;;
75772;SDS011;64381;0.000;0.000;2023-01-29T16:03:38;4.82;;;2.70;;
75772;SDS011;64381;0.000;0.000;2023-01-29T16:06:04;3.93;;;2.20;;
75772;SDS011;64381;0.000;0.000;2023-01-29T16:08:29;4.80;;;2.63;;
75772;SDS011;64381;0.000;0.000;2023-01-29T16:10:55;4.73;;;2.70;;
75772;SDS011;64381;0.000;0.000;2023-01-29T16:13:23;5.68;;;2.70;;
75772;SDS011;64381;0.000;0.000;2023-01-29T16:18:28;5.37;;;2.80;;
75772;SDS011;64381;0.000;0.000;2023-01-29T16:20:56;4.47;;;2.63;;
75772;SDS011;64381;0.000;0.000;2023-01-29T16:23:28;4.32;;;2.50;;
75772;SDS011;64381;0.000;0.000;2023-01-29T16:25:55;4.57;;;2.30;;
75772;SDS011;64381;0.000;0.000;2023-01-29T16:28:26;5.10;;;2.50;;
75772;SDS011;64381;0.000;0.000;2023-01-29T16:30:58;4.27;;;2.47;;
75772;SDS011;64381;0.000;0.000;2023-01-29T16:33:31;4.50;;;2.50;;
75772;SDS011;64381;0.000;0.000;2023-01-29T16:35:59;4.88;;;2.60;;
75772;SDS011;64381;0.000;0.000;2023-01-29T16:38:26;4.40;;;2.60;;
75772;SDS011;64381;0.000;0.000;2023-01-29T16:41:05;4.60;;;2.50;;
75772;SDS011;64381;0.000;0.000;2023-01-29T16:43:48;4.03;;;2.35;;
75772;SDS011;64381;0.000;0.000;2023-01-29T16:46:24;4.22;;;2.53;;
75772;SDS011;64381;0.000;0.000;2023-01-29T16:49:01;5.05;;;2.47;;
75772;SDS011;64381;0.000;0.000;2023-01-29T16:51:46;5.37;;;2.90;;
75772;SDS011;64381;0.000;0.000;2023-01-29T16:54:12;5.00;;;3.20;;
75772;SDS011;64381;0.000;0.000;2023-01-29T16:56:38;5.47;;;3.15;;
75772;SDS011;64381;0.000;0.000;2023-01-29T16:59:04;5.80;;;3.40;;
75772;SDS011;64381;0.000;0.000;2023-01-29T17:01:30;5.40;;;3.22;;
75772;SDS011;64381;0.000;0.000;2023-01-29T17:03:59;4.82;;;3.03;;
75772;SDS011;64381;0.000;0.000;2023-01-29T17:06:29;6.25;;;3.10;;
75772;SDS011;64381;0.000;0.000;2023-01-29T17:08:55;5.18;;;3.10;;